createdAt,value
2023-04-25T00:00:51.394Z,14.30
2023-04-25T00:03:59.381Z,15.70
2023-04-25T00:07:03.504Z,12.30
2023-04-25T00:10:08.637Z,16.80
2023-04-25T00:13:12.583Z,14.70
2023-04-25T00:16:16.779Z,14.00
2023-04-25T00:19:21.036Z,14.70
2023-04-25T00:22:24.982Z,16.70
2023-04-25T00:25:29.014Z,13.70
2023-04-25T00:28:33.057Z,13.70
2023-04-25T00:31:37.076Z,14.00
2023-04-25T00:34:41.208Z,13.50
2023-04-25T00:37:45.902Z,16.80
2023-04-25T00:40:49.843Z,15.50
2023-04-25T00:43:55.764Z,16.60
2023-04-25T00:47:01.653Z,13.00
2023-04-25T00:50:06.761Z,17.40
2023-04-25T00:53:11.122Z,12.80
2023-04-25T00:56:15.539Z,15.60
2023-04-25T00:59:20.526Z,17.10
2023-04-25T01:02:24.843Z,13.90
2023-04-25T01:05:29.007Z,15.20
2023-04-25T01:08:32.979Z,14.60
2023-04-25T01:11:37.359Z,15.80
2023-04-25T01:14:41.475Z,15.50
2023-04-25T01:17:46.077Z,20.30
2023-04-25T01:20:52.980Z,14.80
2023-04-25T01:23:58.699Z,15.60
2023-04-25T01:27:03.398Z,14.40
2023-04-25T01:30:08.597Z,15.30
2023-04-25T01:33:16.637Z,14.40
2023-04-25T01:36:22.557Z,17.00
2023-04-25T01:39:26.913Z,15.10
2023-04-25T01:42:30.929Z,15.10
2023-04-25T01:45:37.413Z,14.40
2023-04-25T01:48:41.419Z,14.90
2023-04-25T01:51:45.416Z,14.80
2023-04-25T01:54:52.022Z,13.80
2023-04-25T01:57:56.125Z,18.00
2023-04-25T02:01:08.973Z,14.30
2023-04-25T02:04:17.597Z,15.60
2023-04-25T02:07:22.225Z,17.30
2023-04-25T02:10:29.701Z,13.70
2023-04-25T02:13:55.520Z,13.90
2023-04-25T02:17:14.868Z,15.50
2023-04-25T02:20:19.319Z,14.40
2023-04-25T02:23:23.326Z,19.50
2023-04-25T02:26:27.991Z,18.00
2023-04-25T02:32:36.353Z,13.10
2023-04-25T02:35:40.310Z,14.90
2023-04-25T02:38:44.351Z,14.20
2023-04-25T02:41:48.240Z,14.20
2023-04-25T02:44:52.123Z,15.40
2023-04-25T02:47:56.193Z,12.90
2023-04-25T02:51:00.155Z,20.50
2023-04-25T02:54:04.441Z,11.90
2023-04-25T02:57:10.584Z,13.10
2023-04-25T03:00:15.364Z,9.80
2023-04-25T03:06:27.245Z,11.90
2023-04-25T03:09:31.344Z,10.60
2023-04-25T03:12:35.379Z,9.50
2023-04-25T03:15:40.010Z,10.60
2023-04-25T03:18:44.845Z,10.90
2023-04-25T03:21:49.582Z,9.80
2023-04-25T03:24:53.604Z,9.40
2023-04-25T03:27:57.610Z,13.80
2023-04-25T03:31:01.850Z,10.60
2023-04-25T03:34:05.830Z,10.70
2023-04-25T03:37:09.870Z,10.10
2023-04-25T03:40:15.709Z,7.70
2023-04-25T03:43:37.011Z,9.50
2023-04-25T03:46:43.096Z,7.70
2023-04-25T03:49:47.036Z,8.50
2023-04-25T03:52:51.551Z,7.00
2023-04-25T03:55:55.966Z,8.10
2023-04-25T03:58:59.991Z,6.90
2023-04-25T04:02:04.756Z,6.60
2023-04-25T04:05:11.492Z,5.70
2023-04-25T04:08:19.718Z,7.90
2023-04-25T04:11:23.731Z,8.70
2023-04-25T04:14:27.659Z,9.20
2023-04-25T04:17:33.026Z,10.50
2023-04-25T04:23:41.953Z,8.00
2023-04-25T04:26:47.390Z,8.80
2023-04-25T04:30:11.150Z,10.30
2023-04-25T04:33:24.529Z,6.90
2023-04-25T04:36:34.580Z,9.00
2023-04-25T04:42:57.568Z,8.40
2023-04-25T04:46:17.492Z,7.80
2023-04-25T04:49:48.020Z,9.20
2023-04-25T04:53:08.450Z,9.70
2023-04-25T04:56:15.351Z,8.20
2023-04-25T04:59:28.388Z,8.70
2023-04-25T05:02:51.428Z,10.10
2023-04-25T05:06:07.598Z,10.90
2023-04-25T05:09:26.936Z,8.70
2023-04-25T05:12:49.887Z,7.80
2023-04-25T05:16:21.350Z,5.40
2023-04-25T05:19:45.950Z,9.00
2023-04-25T05:23:12.196Z,8.30
2023-04-25T05:26:19.277Z,7.80
2023-04-25T05:29:41.839Z,7.40
2023-04-25T05:33:02.729Z,8.80
2023-04-25T05:36:08.297Z,8.70
2023-04-25T05:39:13.216Z,7.60
2023-04-25T05:42:46.847Z,9.70
2023-04-25T05:46:03.691Z,8.00
2023-04-25T05:49:32.350Z,8.50
2023-04-25T05:52:57.446Z,8.20
2023-04-25T05:56:05.775Z,7.90
2023-04-25T05:59:09.703Z,8.60
2023-04-25T06:02:13.900Z,8.60
2023-04-25T06:05:19.374Z,11.20
2023-04-25T06:08:24.384Z,10.70
2023-04-25T06:11:28.397Z,10.60
2023-04-25T06:14:32.520Z,8.80
2023-04-25T06:17:37.038Z,10.60
2023-04-25T06:20:41.476Z,10.60
2023-04-25T06:23:45.509Z,9.30
2023-04-25T06:26:56.267Z,10.00
2023-04-25T06:30:00.778Z,11.90
2023-04-25T06:33:05.155Z,11.00
2023-04-25T06:39:14.708Z,9.60
2023-04-25T06:42:18.765Z,9.90
2023-04-25T06:45:35.925Z,8.60
2023-04-25T06:48:39.953Z,8.80
2023-04-25T06:51:44.159Z,8.80
2023-04-25T06:54:48.181Z,8.40
2023-04-25T06:58:24.881Z,8.20
2023-04-25T07:01:42.002Z,7.50
2023-04-25T07:04:49.937Z,6.50
2023-04-25T07:07:54.155Z,10.70
2023-04-25T07:10:58.524Z,8.80
2023-04-25T07:14:03.082Z,8.50
2023-04-25T07:17:07.805Z,7.70
2023-04-25T07:20:12.328Z,8.90
2023-04-25T07:23:16.715Z,7.50
2023-04-25T07:26:20.993Z,8.50
2023-04-25T07:29:43.632Z,8.20
2023-04-25T07:32:48.005Z,6.30
2023-04-25T07:35:53.196Z,7.60
2023-04-25T07:38:57.575Z,8.80
2023-04-25T07:42:03.167Z,5.80
2023-04-25T07:45:08.735Z,6.30
2023-04-25T07:48:19.573Z,8.00
2023-04-25T07:51:23.886Z,6.30
2023-04-25T07:54:29.883Z,6.20
2023-04-25T07:57:39.635Z,6.60
2023-04-25T08:00:43.850Z,6.40
2023-04-25T08:03:57.504Z,4.70
2023-04-25T08:07:09.883Z,8.10
2023-04-25T08:10:24.162Z,7.90
2023-04-25T08:13:28.706Z,6.00
2023-04-25T08:16:32.968Z,6.50
2023-04-25T08:19:37.141Z,5.30
2023-04-25T08:22:41.558Z,7.00
2023-04-25T08:26:01.844Z,8.90
2023-04-25T08:32:12.960Z,6.20
2023-04-25T08:35:19.562Z,6.50
2023-04-25T08:38:23.654Z,4.70
2023-04-25T09:25:59.710Z,8.10
2023-04-25T09:29:08.522Z,6.00
2023-04-25T09:32:23.563Z,5.50
2023-04-25T09:35:28.973Z,6.80
2023-04-25T09:38:46.217Z,7.10
2023-04-25T09:41:55.952Z,7.90
2023-04-25T09:45:03.459Z,5.80
2023-04-25T09:48:10.109Z,7.80
2023-04-25T09:51:15.581Z,6.30
2023-04-25T09:54:20.928Z,8.30
2023-04-25T09:57:27.301Z,8.00
2023-04-25T10:00:34.787Z,6.50
2023-04-25T10:03:45.720Z,7.90
2023-04-25T10:07:27.130Z,7.00
2023-04-25T10:10:37.137Z,6.50
2023-04-25T10:13:42.778Z,7.30
2023-04-25T10:16:48.413Z,8.50
2023-04-25T10:19:53.211Z,7.50
2023-04-25T10:26:03.646Z,10.50
2023-04-25T10:29:07.615Z,8.00
2023-04-25T10:32:11.843Z,8.00
2023-04-25T10:35:25.077Z,6.40
2023-04-25T10:38:29.234Z,8.50
2023-04-25T10:41:47.262Z,8.00
2023-04-25T10:45:06.758Z,8.50
2023-04-25T10:48:29.918Z,11.10
2023-04-25T10:51:51.531Z,9.20
2023-04-25T10:54:59.614Z,8.10
2023-04-25T10:58:04.193Z,9.40
2023-04-25T11:04:33.235Z,8.60
2023-04-25T11:08:06.513Z,8.40
2023-04-25T11:11:21.909Z,7.00
2023-04-25T11:14:26.251Z,10.70
2023-04-25T11:17:31.115Z,7.90
2023-04-25T11:20:35.162Z,10.80
2023-04-25T11:23:39.293Z,7.80
2023-04-25T11:26:44.433Z,6.10
2023-04-25T11:29:49.193Z,7.30
2023-04-25T11:32:54.044Z,7.40
2023-04-25T11:35:59.050Z,6.30
2023-04-25T11:39:03.174Z,8.40
2023-04-25T11:42:07.652Z,5.80
2023-04-25T11:45:14.373Z,7.60
2023-04-25T11:48:26.190Z,5.90
2023-04-25T11:51:48.536Z,7.90
2023-04-25T11:54:52.553Z,10.80
2023-04-25T11:57:56.803Z,7.80
2023-04-25T12:01:00.798Z,5.60
2023-04-25T12:04:17.101Z,5.30
2023-04-25T12:07:23.953Z,6.40
2023-04-25T12:10:27.893Z,6.40
2023-04-25T12:13:32.805Z,7.30
2023-04-25T12:16:47.359Z,6.10
2023-04-25T12:19:51.588Z,5.70
2023-04-25T12:22:56.750Z,6.60
2023-04-25T12:26:03.810Z,5.90
2023-04-25T12:29:20.437Z,6.10
2023-04-25T12:32:25.162Z,6.30
2023-04-25T12:35:29.164Z,4.80
2023-04-25T12:38:37.799Z,5.80
2023-04-25T12:41:41.820Z,5.80
2023-04-25T12:44:46.345Z,4.70
2023-04-25T12:47:50.401Z,4.50
2023-04-25T12:50:54.581Z,5.80
2023-04-25T12:53:58.597Z,6.70
2023-04-25T12:57:04.078Z,5.30
2023-04-25T13:00:11.241Z,5.90
2023-04-25T13:03:15.656Z,4.10
2023-04-25T13:06:21.522Z,5.60
2023-04-25T13:09:25.676Z,5.10
2023-04-25T13:12:29.757Z,5.20
2023-04-25T13:15:33.718Z,6.70
2023-04-25T13:18:38.113Z,4.50
2023-04-25T13:21:42.112Z,4.80
2023-04-25T13:24:46.126Z,5.50
2023-04-25T13:27:50.445Z,6.70
2023-04-25T13:30:54.963Z,6.30
2023-04-25T13:37:02.911Z,6.60
2023-04-25T13:40:11.257Z,6.50
2023-04-25T13:43:15.442Z,8.20
2023-04-25T13:49:26.651Z,6.60
2023-04-25T13:52:30.867Z,8.00
2023-04-25T13:55:37.142Z,7.30
2023-04-25T13:58:41.197Z,5.80
2023-04-25T14:01:45.803Z,6.00
2023-04-25T14:04:49.866Z,6.80
2023-04-25T14:07:54.026Z,7.20
2023-04-25T14:10:58.037Z,7.00
2023-04-25T14:14:02.158Z,8.30
2023-04-25T14:17:07.401Z,7.50
2023-04-25T14:20:12.640Z,8.60
2023-04-25T14:23:16.961Z,8.60
2023-04-25T14:26:20.935Z,9.60
2023-04-25T14:29:24.900Z,8.80
2023-04-25T14:32:28.978Z,8.70
2023-04-25T14:35:33.070Z,9.70
2023-04-25T14:38:37.026Z,8.20
2023-04-25T14:41:41.284Z,10.90
2023-04-25T14:44:45.232Z,8.20
2023-04-25T14:47:49.615Z,8.30
2023-04-25T14:50:53.726Z,12.00
2023-04-25T14:53:59.082Z,9.00
2023-04-25T14:57:03.394Z,10.20
2023-04-25T15:00:10.377Z,9.70
2023-04-25T15:03:14.622Z,8.20
2023-04-25T15:06:19.073Z,9.30
2023-04-25T15:09:24.986Z,9.20
2023-04-25T15:12:29.532Z,8.40
2023-04-25T15:15:33.530Z,6.60
2023-04-25T15:18:37.552Z,15.80
2023-04-25T15:21:41.550Z,15.40
2023-04-25T15:24:45.568Z,9.10
2023-04-25T15:27:50.614Z,7.90
2023-04-25T15:30:54.760Z,7.90
2023-04-25T15:33:58.762Z,10.70
2023-04-25T15:37:02.770Z,11.30
2023-04-25T15:40:10.059Z,7.40
2023-04-25T15:43:16.343Z,9.20
2023-04-25T15:46:22.114Z,6.40
2023-04-25T15:49:26.317Z,7.70
2023-04-25T15:52:30.424Z,7.30
2023-04-25T15:55:35.067Z,9.60
2023-04-25T15:58:38.991Z,10.80
2023-04-25T16:01:43.332Z,10.40
2023-04-25T16:04:48.125Z,9.90
2023-04-25T16:07:53.958Z,8.90
2023-04-25T16:10:58.011Z,9.80
2023-04-25T16:14:01.989Z,10.70
2023-04-25T16:17:05.929Z,10.00
2023-04-25T16:20:12.538Z,9.40
2023-04-25T16:23:16.632Z,9.20
2023-04-25T16:26:20.602Z,9.10
2023-04-25T16:29:24.658Z,9.60
2023-04-25T16:32:28.784Z,8.70
2023-04-25T16:35:32.776Z,8.90
2023-04-25T16:38:39.799Z,13.50
2023-04-25T16:41:44.096Z,11.40
2023-04-25T16:44:48.116Z,9.30
2023-04-25T16:47:52.019Z,7.70
2023-04-25T16:50:56.874Z,9.60
2023-04-25T16:54:01.381Z,7.10
2023-04-25T16:57:05.710Z,8.10
2023-04-25T17:00:10.789Z,7.90
2023-04-25T17:03:15.059Z,7.50
2023-04-25T17:06:19.210Z,8.20
2023-04-25T17:09:23.309Z,8.40
2023-04-25T17:12:27.286Z,6.50
2023-04-25T17:15:34.190Z,7.10
2023-04-25T17:18:38.970Z,7.60
2023-04-25T17:21:43.045Z,8.00
2023-04-25T17:24:47.020Z,8.60
2023-04-25T17:27:51.486Z,6.90
2023-04-25T17:30:56.167Z,5.90
2023-04-25T17:37:04.174Z,8.40
2023-04-25T17:40:12.107Z,7.70
2023-04-25T17:43:16.333Z,8.40
2023-04-25T17:46:21.410Z,8.00
2023-04-25T17:49:25.536Z,9.90
2023-04-25T17:52:29.538Z,8.90
2023-04-25T17:55:33.686Z,7.80
2023-04-25T17:58:37.617Z,8.70
2023-04-25T18:01:45.690Z,9.30
2023-04-25T18:04:52.406Z,7.70
2023-04-25T18:07:56.574Z,8.40
2023-04-25T18:11:00.622Z,9.80
2023-04-25T18:14:04.655Z,8.50
2023-04-25T18:17:09.078Z,7.70
2023-04-25T18:20:17.394Z,9.00
2023-04-25T18:23:22.018Z,9.00
2023-04-25T18:29:33.503Z,8.20
2023-04-25T18:32:38.256Z,8.20
2023-04-25T18:35:51.518Z,8.90
2023-04-25T18:39:15.512Z,9.10
2023-04-25T18:42:26.372Z,8.80
2023-04-25T18:45:30.421Z,10.80
2023-04-25T18:48:34.385Z,10.60
2023-04-25T18:51:38.409Z,9.80
2023-04-25T18:54:42.928Z,8.70
2023-04-25T18:57:47.046Z,9.80
2023-04-25T19:00:51.185Z,9.40
2023-04-25T19:03:58.771Z,9.30
2023-04-25T19:07:04.370Z,9.10
2023-04-25T19:10:09.388Z,10.00
2023-04-25T19:13:13.776Z,10.40
2023-04-25T19:16:19.003Z,9.40
2023-04-25T19:19:23.141Z,9.20
2023-04-25T19:22:27.576Z,9.30
2023-04-25T19:25:32.303Z,8.60
2023-04-25T19:28:36.642Z,8.70
2023-04-25T19:31:42.705Z,10.60
2023-04-25T19:34:46.997Z,11.80
2023-04-25T19:37:50.980Z,9.60
2023-04-25T19:40:54.968Z,9.90
2023-04-25T19:44:04.773Z,9.30
2023-04-25T19:47:08.804Z,10.40
2023-04-25T19:50:13.009Z,12.40
2023-04-25T19:53:17.053Z,13.70
2023-04-25T19:56:22.058Z,10.30
2023-04-25T19:59:26.205Z,10.40
2023-04-25T20:02:30.535Z,11.80
2023-04-25T20:05:34.647Z,11.00
2023-04-25T20:08:38.859Z,11.30
2023-04-25T20:11:42.876Z,9.20
2023-04-25T20:14:46.780Z,11.00
2023-04-25T20:17:50.814Z,15.20
2023-04-25T20:20:54.795Z,12.70
2023-04-25T20:24:01.416Z,12.10
2023-04-25T20:27:05.621Z,11.70
2023-04-25T20:30:12.027Z,15.20
2023-04-25T20:33:16.178Z,11.00
2023-04-25T20:36:20.225Z,13.70
2023-04-25T20:39:24.259Z,13.20
2023-04-25T20:42:28.249Z,12.40
2023-04-25T20:45:34.582Z,13.50
2023-04-25T20:48:38.619Z,14.10
2023-04-25T20:51:42.972Z,16.20
2023-04-25T20:54:50.841Z,14.30
2023-04-25T20:57:54.993Z,14.60
2023-04-25T21:00:58.992Z,11.50
2023-04-25T21:04:03.310Z,18.20
2023-04-25T21:07:07.758Z,11.90
2023-04-25T21:10:13.018Z,12.80
2023-04-25T21:13:17.559Z,12.40
2023-04-25T21:16:21.673Z,15.00
2023-04-25T21:19:25.644Z,13.00
2023-04-25T21:22:29.588Z,11.70
2023-04-25T21:25:33.963Z,13.50
2023-04-25T21:28:38.021Z,11.90
2023-04-25T21:31:42.504Z,12.70
2023-04-25T21:37:50.867Z,12.30
2023-04-25T21:40:54.892Z,15.80
2023-04-25T21:43:58.920Z,13.70
2023-04-25T21:47:04.597Z,14.80
2023-04-25T21:50:10.244Z,14.60
2023-04-25T21:53:14.193Z,13.80
2023-04-25T21:56:18.157Z,15.30
2023-04-25T21:59:24.853Z,16.40
2023-04-25T22:02:31.222Z,15.30
2023-04-25T22:05:35.508Z,14.00
2023-04-25T22:08:39.425Z,15.90
2023-04-25T22:11:43.387Z,13.60
2023-04-25T22:14:47.569Z,14.60
2023-04-25T22:17:54.066Z,14.40
2023-04-25T22:20:58.268Z,14.80
2023-04-25T22:24:02.786Z,13.70
2023-04-25T22:27:06.818Z,13.00
2023-04-25T22:30:14.416Z,12.50
2023-04-25T22:33:18.423Z,12.30
2023-04-25T22:36:24.101Z,11.20
2023-04-25T22:39:28.321Z,12.60
2023-04-25T22:42:38.557Z,11.40
2023-04-25T22:45:42.902Z,9.60
2023-04-25T22:48:48.214Z,9.10
2023-04-25T22:51:55.728Z,12.60
2023-04-25T22:54:59.696Z,6.50
2023-04-25T22:58:04.869Z,10.10
2023-04-25T23:01:09.012Z,9.20
2023-04-25T23:04:13.358Z,9.00
2023-04-25T23:10:22.601Z,10.70
2023-04-25T23:13:26.617Z,9.30
2023-04-25T23:16:30.683Z,9.90
2023-04-25T23:19:35.011Z,8.80
2023-04-25T23:22:39.573Z,10.10
2023-04-25T23:28:47.916Z,10.40
2023-04-25T23:31:51.827Z,7.70
2023-04-25T23:34:56.033Z,9.20
2023-04-25T23:37:59.983Z,8.60
2023-04-25T23:41:03.977Z,8.30
2023-04-25T23:44:08.998Z,8.80
2023-04-25T23:47:14.331Z,10.20
2023-04-25T23:50:18.749Z,8.00
2023-04-25T23:53:22.667Z,11.80
2023-04-25T23:56:26.915Z,9.00
2023-04-25T23:59:31.778Z,9.30
